createdAt,value
2017-10-23T00:01:04.262Z,1017.8
2017-10-23T00:06:05.005Z,1017.8
2017-10-23T00:11:05.167Z,1017.8
2017-10-23T00:16:04.948Z,1017.8
2017-10-23T00:21:04.852Z,1017.8
2017-10-23T00:26:04.675Z,1017.8
2017-10-23T00:31:04.454Z,1017.9
2017-10-23T00:36:04.565Z,1017.9
2017-10-23T00:41:07.398Z,1017.9
2017-10-23T00:46:04.691Z,1018
2017-10-23T00:51:04.531Z,1017.9
2017-10-23T00:56:05.289Z,1018
2017-10-23T01:01:04.454Z,1018
2017-10-23T01:06:04.278Z,1018
2017-10-23T01:11:04.500Z,1018
2017-10-23T01:16:04.302Z,1018
2017-10-23T01:21:05.177Z,1018
2017-10-23T01:26:04.902Z,1018
2017-10-23T01:31:04.696Z,1018
2017-10-23T01:36:04.648Z,1018
2017-10-23T01:41:04.812Z,1017.9
2017-10-23T01:46:04.596Z,1017.9
2017-10-23T01:51:04.363Z,1018
2017-10-23T01:56:05.162Z,1017.9
2017-10-23T02:01:04.953Z,1017.8
2017-10-23T02:06:04.708Z,1017.8
2017-10-23T02:11:04.903Z,1017.8
2017-10-23T02:16:04.658Z,1018
2017-10-23T02:21:04.518Z,1018.1
2017-10-23T02:26:04.508Z,1018.1
2017-10-23T02:31:04.266Z,1018.1
2017-10-23T02:36:05.120Z,1018.2
2017-10-23T02:41:04.246Z,1018.2
2017-10-23T02:46:05.021Z,1018.2
2017-10-23T02:51:04.784Z,1018.3
2017-10-23T02:56:04.588Z,1018.2
2017-10-23T03:01:04.335Z,1018.4
2017-10-23T03:06:05.082Z,1018.4
2017-10-23T03:11:04.312Z,1018.4
2017-10-23T03:16:05.049Z,1018.4
2017-10-23T03:21:04.899Z,1018.4
2017-10-23T03:26:04.699Z,1018.4
2017-10-23T03:31:04.498Z,1018.4
2017-10-23T03:36:04.246Z,1018.5
2017-10-23T03:41:04.433Z,1018.5
2017-10-23T03:46:04.213Z,1018.5
2017-10-23T03:51:04.969Z,1018.6
2017-10-23T03:56:04.783Z,1018.7
2017-10-23T04:01:04.553Z,1018.7
2017-10-23T04:06:04.347Z,1018.7
2017-10-23T04:11:04.608Z,1018.7
2017-10-23T04:16:04.389Z,1018.7
2017-10-23T04:21:04.249Z,1018.7
2017-10-23T04:26:04.496Z,1018.7
2017-10-23T04:31:04.291Z,1018.8
2017-10-23T04:36:05.003Z,1018.8
2017-10-23T04:41:05.145Z,1018.8
2017-10-23T04:46:04.904Z,1018.9
2017-10-23T04:51:04.731Z,1018.8
2017-10-23T04:56:04.477Z,1018.9
2017-10-23T05:01:04.230Z,1019
2017-10-23T05:06:05.050Z,1019
2017-10-23T05:11:04.202Z,1019
2017-10-23T05:16:05.034Z,1019.1
2017-10-23T05:21:04.925Z,1019.1
2017-10-23T05:26:04.731Z,1019.1
2017-10-23T05:31:04.562Z,1019.1
2017-10-23T05:36:04.311Z,1019.1
2017-10-23T05:41:04.513Z,1019
2017-10-23T05:46:04.255Z,1019
2017-10-23T05:51:05.059Z,1019
2017-10-23T05:56:04.859Z,1019.1
2017-10-23T06:01:04.645Z,1019.2
2017-10-23T06:06:04.441Z,1019.2
2017-10-23T06:11:04.589Z,1019.2
2017-10-23T06:16:04.330Z,1019.3
2017-10-23T06:21:05.124Z,1019.3
2017-10-23T06:26:04.914Z,1019.3
2017-10-23T06:31:04.680Z,1019.4
2017-10-23T06:36:04.452Z,1019.4
2017-10-23T06:41:04.701Z,1019.5
2017-10-23T06:46:04.472Z,1019.4
2017-10-23T06:51:04.249Z,1019.5
2017-10-23T06:56:04.941Z,1019.5
2017-10-23T07:01:04.740Z,1019.6
2017-10-23T07:06:04.544Z,1019.6
2017-10-23T07:11:04.783Z,1019.7
2017-10-23T07:16:04.473Z,1019.5
2017-10-23T07:21:04.329Z,1019.7
2017-10-23T07:26:05.183Z,1019.6
2017-10-23T07:31:04.935Z,1019.6
2017-10-23T07:36:04.669Z,1019.7
2017-10-23T07:41:04.841Z,1019.7
2017-10-23T07:46:04.676Z,1019.7
2017-10-23T07:51:04.458Z,1019.7
2017-10-23T07:56:04.253Z,1019.6
2017-10-23T08:01:05.019Z,1019.8
2017-10-23T08:06:04.778Z,1019.8
2017-10-23T08:11:04.904Z,1019.8
2017-10-23T08:16:04.729Z,1019.9
2017-10-23T08:21:04.624Z,1019.9
2017-10-23T08:26:04.363Z,1020
2017-10-23T08:31:05.120Z,1020
2017-10-23T08:36:04.942Z,1020.1
2017-10-23T08:41:05.130Z,1020.1
2017-10-23T08:46:04.876Z,1020.1
2017-10-23T08:51:04.657Z,1020.1
2017-10-23T08:56:04.482Z,1020.1
2017-10-23T09:01:04.214Z,1020
2017-10-23T09:06:05.068Z,1020
2017-10-23T09:11:04.226Z,1020.1
2017-10-23T09:16:05.017Z,1020.1
2017-10-23T09:21:04.883Z,1020.1
2017-10-23T09:26:04.648Z,1020
2017-10-23T09:31:04.509Z,1020.1
2017-10-23T09:36:04.301Z,1020.1
2017-10-23T09:41:04.480Z,1020.1
2017-10-23T09:46:04.305Z,1020.3
2017-10-23T09:51:04.213Z,1020.3
2017-10-23T09:56:05.022Z,1020.2
2017-10-23T10:01:04.887Z,1020.3
2017-10-23T10:06:04.686Z,1020.3
2017-10-23T10:11:05.145Z,1020.4
2017-10-23T10:16:04.892Z,1020.4
2017-10-23T10:21:04.785Z,1020.5
2017-10-23T10:26:04.600Z,1020.6
2017-10-23T10:31:04.438Z,1020.6
2017-10-23T10:36:04.508Z,1020.6
2017-10-23T10:41:04.701Z,1020.5
2017-10-23T10:46:04.481Z,1020.6
2017-10-23T10:51:04.317Z,1020.5
2017-10-23T10:56:05.033Z,1020.5
2017-10-23T11:01:04.745Z,1020.6
2017-10-23T11:06:04.575Z,1020.5
2017-10-23T11:11:04.787Z,1020.6
2017-10-23T11:16:05.246Z,1020.5
2017-10-23T11:21:04.679Z,1020.5
2017-10-23T11:26:04.283Z,1020.6
2017-10-23T11:31:04.197Z,1020.4
2017-10-23T11:36:05.803Z,1020.4
2017-10-23T11:41:10.513Z,1020.4
2017-10-23T11:46:05.037Z,1020.4
2017-10-23T11:51:05.328Z,1020.4
2017-10-23T11:56:04.977Z,1020.4
2017-10-23T12:01:04.888Z,1020.3
2017-10-23T12:06:05.188Z,1020.3
2017-10-23T12:11:05.835Z,1020.3
2017-10-23T12:16:04.952Z,1020.3
2017-10-23T12:21:05.904Z,1020.3
2017-10-23T12:26:05.075Z,1020.3
2017-10-23T12:31:04.875Z,1020.3
2017-10-23T12:36:04.730Z,1020.3
2017-10-23T12:41:04.980Z,1020.3
2017-10-23T12:46:04.730Z,1020.4
2017-10-23T12:51:04.585Z,1020.4
2017-10-23T12:56:04.367Z,1020.4
2017-10-23T13:01:05.204Z,1020.4
2017-10-23T13:06:04.934Z,1020.5
2017-10-23T13:11:05.170Z,1020.5
2017-10-23T13:16:05.004Z,1020.5
2017-10-23T13:21:04.851Z,1020.5
2017-10-23T13:26:04.923Z,1020.8
2017-10-23T13:31:04.349Z,1020.7
2017-10-23T13:36:04.418Z,1020.7
2017-10-23T13:41:04.587Z,1020.8
2017-10-23T13:46:04.299Z,1020.8
2017-10-23T13:51:05.067Z,1020.9
2017-10-23T13:56:04.820Z,1020.9
2017-10-23T14:01:04.663Z,1020.9
2017-10-23T14:06:04.503Z,1020.9
2017-10-23T14:11:05.192Z,1020.9
2017-10-23T14:16:04.990Z,1021
2017-10-23T14:21:04.815Z,1021
2017-10-23T14:26:04.599Z,1021.1
2017-10-23T14:31:04.443Z,1021.1
2017-10-23T14:36:05.206Z,1021.2
2017-10-23T14:41:04.336Z,1021.2
2017-10-23T14:46:06.236Z,1021.3
2017-10-23T14:51:04.912Z,1021.3
2017-10-23T14:56:04.707Z,1021.4
2017-10-23T15:01:04.522Z,1021.4
2017-10-23T15:06:04.352Z,1021.4
2017-10-23T15:11:04.876Z,1021.4
2017-10-23T15:16:12.636Z,1021.5
2017-10-23T15:21:04.679Z,1021.5
2017-10-23T15:26:04.848Z,1021.6
2017-10-23T15:31:04.814Z,1021.6
2017-10-23T15:36:04.419Z,1021.7
2017-10-23T15:41:04.643Z,1021.6
2017-10-23T15:46:04.610Z,1021.7
2017-10-23T15:51:04.303Z,1021.7
2017-10-23T15:56:05.139Z,1021.7
2017-10-23T16:01:04.913Z,1021.8
2017-10-23T16:06:04.655Z,1021.8
2017-10-23T16:11:05.065Z,1021.8
2017-10-23T16:16:04.701Z,1021.8
2017-10-23T16:21:04.623Z,1021.9
2017-10-23T16:26:04.328Z,1022
2017-10-23T16:31:05.148Z,1022
2017-10-23T16:36:04.985Z,1022
2017-10-23T16:41:05.128Z,1022.1
2017-10-23T16:46:04.936Z,1022.2
2017-10-23T16:51:04.647Z,1022.2
2017-10-23T16:56:04.429Z,1022.4
2017-10-23T17:01:04.232Z,1022.4
2017-10-23T17:06:04.979Z,1022.5
2017-10-23T17:11:05.035Z,1022.5
2017-10-23T17:16:04.915Z,1022.5
2017-10-23T17:21:04.831Z,1022.6
2017-10-23T17:26:04.653Z,1022.6
2017-10-23T17:31:04.450Z,1022.6
2017-10-23T17:36:04.198Z,1022.8
2017-10-23T17:41:04.502Z,1022.9
2017-10-23T17:46:04.247Z,1022.9
2017-10-23T17:51:05.051Z,1023
2017-10-23T17:56:05.123Z,1023
2017-10-23T18:01:04.679Z,1023.1
2017-10-23T18:06:04.500Z,1023.1
2017-10-23T18:11:04.863Z,1023.2
2017-10-23T18:16:04.692Z,1023.2
2017-10-23T18:21:04.852Z,1023.1
2017-10-23T18:26:04.598Z,1023.2
2017-10-23T18:31:04.468Z,1023.2
2017-10-23T18:36:04.908Z,1023.3
2017-10-23T18:41:04.833Z,1023.3
2017-10-23T18:46:06.430Z,1023.3
2017-10-23T18:51:06.953Z,1023.3
2017-10-23T18:56:06.923Z,1023.4
2017-10-23T19:01:04.779Z,1023.4
2017-10-23T19:06:11.664Z,1023.5
2017-10-23T19:11:05.298Z,1023.5
2017-10-23T19:16:06.865Z,1023.5
2017-10-23T19:21:05.126Z,1023.5
2017-10-23T19:26:04.567Z,1023.4
2017-10-23T19:31:06.097Z,1023.5
2017-10-23T19:36:06.655Z,1023.5
2017-10-23T19:41:06.423Z,1023.5
2017-10-23T19:46:04.763Z,1023.6
2017-10-23T19:51:06.616Z,1023.7
2017-10-23T19:56:05.202Z,1023.7
2017-10-23T20:01:04.821Z,1023.7
2017-10-23T20:06:04.569Z,1023.6
2017-10-23T20:11:04.800Z,1023.7
2017-10-23T20:16:04.534Z,1023.7
2017-10-23T20:21:04.419Z,1023.8
2017-10-23T20:26:04.182Z,1023.8
2017-10-23T20:31:04.961Z,1023.8
2017-10-23T20:36:04.713Z,1023.9
2017-10-23T20:41:04.993Z,1023.9
2017-10-23T20:46:04.785Z,1023.9
2017-10-23T20:51:04.667Z,1023.9
2017-10-23T20:56:04.330Z,1024
2017-10-23T21:01:05.159Z,1024
2017-10-23T21:06:04.896Z,1024
2017-10-23T21:11:05.254Z,1024
2017-10-23T21:16:04.895Z,1023.9
2017-10-23T21:21:04.782Z,1023.9
2017-10-23T21:26:04.563Z,1024
2017-10-23T21:31:04.357Z,1023.9
2017-10-23T21:36:05.076Z,1023.9
2017-10-23T21:41:04.334Z,1024
2017-10-23T21:46:05.084Z,1023.9
2017-10-23T21:51:04.896Z,1023.9
2017-10-23T21:56:04.715Z,1024
2017-10-23T22:01:04.511Z,1023.9
2017-10-23T22:06:04.374Z,1023.9
2017-10-23T22:11:04.645Z,1024
2017-10-23T22:16:04.430Z,1024
2017-10-23T22:21:04.257Z,1024
2017-10-23T22:26:05.011Z,1024
2017-10-23T22:31:04.836Z,1024.1
2017-10-23T22:36:04.589Z,1024.2
2017-10-23T22:41:04.786Z,1024.2
2017-10-23T22:46:04.595Z,1024.1
2017-10-23T22:51:04.381Z,1024
2017-10-23T22:56:05.135Z,1024
2017-10-23T23:01:04.931Z,1024.1
2017-10-23T23:06:04.675Z,1024.1
2017-10-23T23:11:04.902Z,1024
2017-10-23T23:16:04.647Z,1024
2017-10-23T23:21:04.465Z,1024.1
2017-10-23T23:26:04.315Z,1024.1
2017-10-23T23:31:05.014Z,1024.1
2017-10-23T23:36:04.809Z,1024
2017-10-23T23:41:05.021Z,1024
2017-10-23T23:46:04.801Z,1024
2017-10-23T23:51:04.518Z,1024
2017-10-23T23:56:04.353Z,1023.9
